createdAt,value
2019-03-27T00:00:22.747Z,6.59
2019-03-27T00:01:22.742Z,6.68
2019-03-27T00:02:22.720Z,6.59
2019-03-27T00:03:22.746Z,6.59
2019-03-27T00:04:22.709Z,6.52
2019-03-27T00:05:22.707Z,6.46
2019-03-27T00:06:22.675Z,6.39
2019-03-27T00:07:22.689Z,6.34
2019-03-27T00:08:22.683Z,6.32
2019-03-27T00:09:22.672Z,6.32
2019-03-27T00:10:22.662Z,6.32
2019-03-27T00:11:22.654Z,6.28
2019-03-27T00:12:22.617Z,6.19
2019-03-27T00:13:22.644Z,6.22
2019-03-27T00:14:22.605Z,6.16
2019-03-27T00:15:22.587Z,6.19
2019-03-27T00:16:22.590Z,6.05
2019-03-27T00:17:22.562Z,5.91
2019-03-27T00:18:22.608Z,6.01
2019-03-27T00:19:22.552Z,5.98
2019-03-27T00:20:22.540Z,5.87
2019-03-27T00:21:22.527Z,5.88
2019-03-27T00:22:22.523Z,5.80
2019-03-27T00:23:22.539Z,5.84
2019-03-27T00:24:22.494Z,5.79
2019-03-27T00:25:22.484Z,5.69
2019-03-27T00:26:23.198Z,5.69
2019-03-27T00:27:22.467Z,5.59
2019-03-27T00:28:22.474Z,5.61
2019-03-27T00:29:22.449Z,5.59
2019-03-27T00:30:22.425Z,5.59
2019-03-27T00:31:22.420Z,5.56
2019-03-27T00:32:22.398Z,5.59
2019-03-27T00:33:22.425Z,5.47
2019-03-27T00:34:22.407Z,5.49
2019-03-27T00:35:22.377Z,5.44
2019-03-27T00:36:22.361Z,5.40
2019-03-27T00:37:22.359Z,5.51
2019-03-27T00:38:22.429Z,5.40
2019-03-27T00:39:22.340Z,5.44
2019-03-27T00:40:22.353Z,5.46
2019-03-27T00:41:22.306Z,5.46
2019-03-27T00:42:22.299Z,5.44
2019-03-27T00:43:22.317Z,5.41
2019-03-27T00:44:22.276Z,5.36
2019-03-27T00:45:26.945Z,5.36
2019-03-27T00:46:22.259Z,5.26
2019-03-27T00:47:22.251Z,5.25
2019-03-27T00:48:22.237Z,5.20
2019-03-27T00:49:22.741Z,5.15
2019-03-27T00:50:22.227Z,5.18
2019-03-27T00:51:22.207Z,5.05
2019-03-27T00:52:22.199Z,4.89
2019-03-27T00:53:22.174Z,4.89
2019-03-27T00:54:22.186Z,4.76
2019-03-27T00:55:22.151Z,4.75
2019-03-27T00:56:22.148Z,4.66
2019-03-27T00:57:22.171Z,4.63
2019-03-27T00:58:22.127Z,4.57
2019-03-27T00:59:22.132Z,4.50
2019-03-27T01:00:22.102Z,4.52
2019-03-27T01:01:22.091Z,4.45
2019-03-27T01:02:22.086Z,4.40
2019-03-27T01:03:22.074Z,4.40
2019-03-27T01:04:22.074Z,4.38
2019-03-27T01:05:22.081Z,4.38
2019-03-27T01:06:22.046Z,4.31
2019-03-27T01:07:22.029Z,4.24
2019-03-27T01:08:22.018Z,4.25
2019-03-27T01:09:22.030Z,4.13
2019-03-27T01:10:21.992Z,4.13
2019-03-27T01:11:21.978Z,4.12
2019-03-27T01:12:21.973Z,4.20
2019-03-27T01:13:21.961Z,4.14
2019-03-27T01:14:21.957Z,4.10
2019-03-27T01:15:21.947Z,4.10
2019-03-27T01:16:21.930Z,4.09
2019-03-27T01:17:21.928Z,4.02
2019-03-27T01:18:21.898Z,4.06
2019-03-27T01:19:21.926Z,4.07
2019-03-27T01:20:21.881Z,3.99
2019-03-27T01:21:21.879Z,3.95
2019-03-27T01:22:21.859Z,3.96
2019-03-27T01:23:21.845Z,3.96
2019-03-27T01:24:21.862Z,4.03
2019-03-27T01:25:21.843Z,4.00
2019-03-27T01:26:21.819Z,4.03
2019-03-27T01:27:21.798Z,4.09
2019-03-27T01:28:21.800Z,4.06
2019-03-27T01:29:21.812Z,4.02
2019-03-27T01:30:21.763Z,4.07
2019-03-27T01:31:21.757Z,4.06
2019-03-27T01:32:21.748Z,4.10
2019-03-27T01:33:21.739Z,4.12
2019-03-27T01:34:21.759Z,4.18
2019-03-27T01:35:21.716Z,4.18
2019-03-27T01:36:21.704Z,4.20
2019-03-27T01:37:21.686Z,4.07
2019-03-27T01:38:21.694Z,4.12
2019-03-27T01:39:21.703Z,4.22
2019-03-27T01:40:21.669Z,4.25
2019-03-27T01:41:21.650Z,4.13
2019-03-27T01:42:21.647Z,4.12
2019-03-27T01:43:21.637Z,4.06
2019-03-27T01:44:21.640Z,4.13
2019-03-27T01:45:21.623Z,4.13
2019-03-27T01:46:21.612Z,4.20
2019-03-27T01:47:21.583Z,4.16
2019-03-27T01:48:21.580Z,4.18
2019-03-27T01:49:21.597Z,4.22
2019-03-27T01:50:21.554Z,4.24
2019-03-27T01:51:21.547Z,4.25
2019-03-27T01:52:21.594Z,4.34
2019-03-27T01:53:21.523Z,4.32
2019-03-27T01:54:21.579Z,4.27
2019-03-27T01:55:21.497Z,4.38
2019-03-27T01:56:21.492Z,4.28
2019-03-27T01:57:21.476Z,4.20
2019-03-27T01:58:21.459Z,4.21
2019-03-27T01:59:21.480Z,4.22
2019-03-27T02:00:21.447Z,4.16
2019-03-27T02:01:21.432Z,4.32
2019-03-27T02:02:21.420Z,4.34
2019-03-27T02:03:21.422Z,4.38
2019-03-27T02:04:21.436Z,4.38
2019-03-27T02:05:21.391Z,4.38
2019-03-27T02:06:21.378Z,4.31
2019-03-27T02:07:21.398Z,4.36
2019-03-27T02:08:21.371Z,4.45
2019-03-27T02:09:21.390Z,4.52
2019-03-27T02:10:21.338Z,4.49
2019-03-27T02:11:21.314Z,4.52
2019-03-27T02:12:21.304Z,4.57
2019-03-27T02:13:21.319Z,4.40
2019-03-27T02:14:21.316Z,4.42
2019-03-27T02:15:21.279Z,4.50
2019-03-27T02:16:21.275Z,4.50
2019-03-27T02:17:21.253Z,4.53
2019-03-27T02:18:21.239Z,4.53
2019-03-27T02:19:21.273Z,4.57
2019-03-27T02:20:21.235Z,4.58
2019-03-27T02:21:21.205Z,4.58
2019-03-27T02:22:21.212Z,4.52
2019-03-27T02:23:21.197Z,4.53
2019-03-27T02:24:21.208Z,4.53
2019-03-27T02:25:21.170Z,4.53
2019-03-27T02:26:21.170Z,4.49
2019-03-27T02:27:21.164Z,4.52
2019-03-27T02:28:21.136Z,4.45
2019-03-27T02:29:21.148Z,4.50
2019-03-27T02:30:21.108Z,4.49
2019-03-27T02:31:21.108Z,4.50
2019-03-27T02:32:21.193Z,4.63
2019-03-27T02:33:21.090Z,4.58
2019-03-27T02:34:21.099Z,4.60
2019-03-27T02:35:21.058Z,4.61
2019-03-27T02:36:21.069Z,4.57
2019-03-27T02:37:21.034Z,4.60
2019-03-27T02:38:21.214Z,4.74
2019-03-27T02:39:21.073Z,4.67
2019-03-27T02:40:21.007Z,4.66
2019-03-27T02:41:21.000Z,4.74
2019-03-27T02:42:20.973Z,4.68
2019-03-27T02:43:20.999Z,4.68
2019-03-27T02:44:20.994Z,4.68
2019-03-27T02:45:20.944Z,4.74
2019-03-27T02:46:25.238Z,4.76
2019-03-27T02:47:20.920Z,4.75
2019-03-27T02:48:20.928Z,4.74
2019-03-27T02:49:20.919Z,4.75
2019-03-27T02:50:20.890Z,4.74
2019-03-27T02:51:20.883Z,4.83
2019-03-27T02:52:20.875Z,4.83
2019-03-27T02:53:20.865Z,4.84
2019-03-27T02:54:20.887Z,4.90
2019-03-27T02:55:20.872Z,4.97
2019-03-27T02:56:20.826Z,4.94
2019-03-27T02:57:20.818Z,4.90
2019-03-27T02:58:20.803Z,4.98
2019-03-27T02:59:20.833Z,4.98
2019-03-27T03:00:20.800Z,5.08
2019-03-27T03:01:20.782Z,5.08
2019-03-27T03:02:20.771Z,5.01
2019-03-27T03:03:20.770Z,5.07
2019-03-27T03:04:20.768Z,5.05
2019-03-27T03:05:21.730Z,5.07
2019-03-27T03:06:20.733Z,5.07
2019-03-27T03:07:20.700Z,5.13
2019-03-27T03:08:20.702Z,5.15
2019-03-27T03:09:20.724Z,5.12
2019-03-27T03:10:20.678Z,5.10
2019-03-27T03:11:21.183Z,5.16
2019-03-27T03:12:20.681Z,5.13
2019-03-27T03:13:20.648Z,5.12
2019-03-27T03:14:20.629Z,5.08
2019-03-27T03:15:20.661Z,5.12
2019-03-27T03:16:20.615Z,5.08
2019-03-27T03:17:20.600Z,5.08
2019-03-27T03:18:20.589Z,5.15
2019-03-27T03:19:20.591Z,5.05
2019-03-27T03:20:20.587Z,5.02
2019-03-27T03:21:20.554Z,5.02
2019-03-27T03:22:20.555Z,5.07
2019-03-27T03:23:20.565Z,5.00
2019-03-27T03:24:20.567Z,4.89
2019-03-27T03:25:20.550Z,4.94
2019-03-27T03:26:20.541Z,4.90
2019-03-27T03:27:20.491Z,4.94
2019-03-27T03:28:20.491Z,4.86
2019-03-27T03:29:20.480Z,4.86
2019-03-27T03:30:20.487Z,4.84
2019-03-27T03:31:20.455Z,4.76
2019-03-27T03:32:20.449Z,4.83
2019-03-27T03:33:20.430Z,4.75
2019-03-27T03:34:20.421Z,4.74
2019-03-27T03:35:20.438Z,4.70
2019-03-27T03:36:20.402Z,4.68
2019-03-27T03:37:20.392Z,4.64
2019-03-27T03:38:20.367Z,4.64
2019-03-27T03:39:20.358Z,4.53
2019-03-27T03:40:20.395Z,4.57
2019-03-27T03:41:20.338Z,4.52
2019-03-27T03:42:20.358Z,4.50
2019-03-27T03:43:20.321Z,4.52
2019-03-27T03:44:20.304Z,4.50
2019-03-27T03:45:20.317Z,4.53
2019-03-27T03:46:20.287Z,4.50
2019-03-27T03:47:20.280Z,4.60
2019-03-27T03:48:20.267Z,4.57
2019-03-27T03:49:20.265Z,4.50
2019-03-27T03:50:20.261Z,4.50
2019-03-27T03:51:20.236Z,4.48
2019-03-27T03:52:20.220Z,4.50
2019-03-27T03:53:20.211Z,4.56
2019-03-27T03:54:20.215Z,4.40
2019-03-27T03:55:20.211Z,4.45
2019-03-27T03:56:20.176Z,4.32
2019-03-27T03:57:20.164Z,4.34
2019-03-27T03:58:20.184Z,4.27
2019-03-27T03:59:20.148Z,4.21
2019-03-27T04:00:20.161Z,4.13
2019-03-27T04:01:20.124Z,4.10
2019-03-27T04:02:20.113Z,4.06
2019-03-27T04:03:20.119Z,4.03
2019-03-27T04:04:20.081Z,3.89
2019-03-27T04:05:20.117Z,3.96
2019-03-27T04:06:20.060Z,3.84
2019-03-27T04:07:20.064Z,3.81
2019-03-27T04:08:20.036Z,3.76
2019-03-27T04:09:20.037Z,3.66
2019-03-27T04:10:20.060Z,3.70
2019-03-27T04:11:20.087Z,3.55
2019-03-27T04:12:19.999Z,3.52
2019-03-27T04:13:19.990Z,3.56
2019-03-27T04:14:19.994Z,3.53
2019-03-27T04:15:20.005Z,3.56
2019-03-27T04:16:19.970Z,3.49
2019-03-27T04:17:19.957Z,3.55
2019-03-27T04:18:19.942Z,3.56
2019-03-27T04:19:19.924Z,3.58
2019-03-27T04:20:19.927Z,3.64
2019-03-27T04:21:19.911Z,3.64
2019-03-27T04:22:19.928Z,3.63
2019-03-27T04:23:19.899Z,3.67
2019-03-27T04:24:19.861Z,3.68
2019-03-27T04:25:19.878Z,3.64
2019-03-27T04:26:19.857Z,3.64
2019-03-27T04:27:19.841Z,3.70
2019-03-27T04:28:19.855Z,3.59
2019-03-27T04:29:19.837Z,3.53
2019-03-27T04:30:19.853Z,3.55
2019-03-27T04:31:19.801Z,3.66
2019-03-27T04:32:19.794Z,3.58
2019-03-27T04:33:19.772Z,3.53
2019-03-27T04:34:19.756Z,3.56
2019-03-27T04:35:19.764Z,3.59
2019-03-27T04:36:19.737Z,3.55
2019-03-27T04:37:19.718Z,3.70
2019-03-27T04:38:19.722Z,3.70
2019-03-27T04:39:19.714Z,3.67
2019-03-27T04:40:19.712Z,3.66
2019-03-27T04:41:19.683Z,3.71
2019-03-27T04:42:19.668Z,3.74
2019-03-27T04:43:19.658Z,3.81
2019-03-27T04:44:19.657Z,3.76
2019-03-27T04:45:19.651Z,3.76
2019-03-27T04:46:19.620Z,3.78
2019-03-27T04:47:31.541Z,3.77
2019-03-27T04:48:20.596Z,3.82
2019-03-27T04:49:19.591Z,3.86
2019-03-27T04:50:19.614Z,3.88
2019-03-27T04:51:19.574Z,3.95
2019-03-27T04:52:19.572Z,4.00
2019-03-27T04:53:19.539Z,4.02
2019-03-27T04:54:19.526Z,4.02
2019-03-27T04:55:19.542Z,3.94
2019-03-27T04:56:19.515Z,3.94
2019-03-27T04:57:19.507Z,3.99
2019-03-27T04:58:19.484Z,3.99
2019-03-27T04:59:19.489Z,4.04
2019-03-27T05:00:19.502Z,3.96
2019-03-27T05:01:19.445Z,4.04
2019-03-27T05:02:19.451Z,4.04
2019-03-27T05:03:19.437Z,4.04
2019-03-27T05:04:19.426Z,4.09
2019-03-27T05:05:19.435Z,4.09
2019-03-27T05:06:19.401Z,4.20
2019-03-27T05:07:19.390Z,4.21
2019-03-27T05:08:19.402Z,4.20
2019-03-27T05:09:19.373Z,4.24
2019-03-27T05:10:19.386Z,4.20
2019-03-27T05:11:19.342Z,4.16
2019-03-27T05:12:19.334Z,4.32
2019-03-27T05:13:19.336Z,4.32
2019-03-27T05:14:19.312Z,4.36
2019-03-27T05:15:19.370Z,4.34
2019-03-27T05:16:19.309Z,4.39
2019-03-27T05:17:19.288Z,4.32
2019-03-27T05:18:19.271Z,4.38
2019-03-27T05:19:19.265Z,4.43
2019-03-27T05:20:19.261Z,4.43
2019-03-27T05:21:19.250Z,4.46
2019-03-27T05:22:19.223Z,4.42
2019-03-27T05:23:19.229Z,4.48
2019-03-27T05:24:19.198Z,4.48
2019-03-27T05:25:19.187Z,4.57
2019-03-27T05:26:19.212Z,4.64
2019-03-27T05:27:19.187Z,4.61
2019-03-27T05:28:19.164Z,4.64
2019-03-27T05:29:19.142Z,4.57
2019-03-27T05:30:19.132Z,4.66
2019-03-27T05:31:19.162Z,4.67
2019-03-27T05:32:19.116Z,4.79
2019-03-27T05:33:19.116Z,4.76
2019-03-27T05:34:19.100Z,4.68
2019-03-27T05:35:19.078Z,4.68
2019-03-27T05:36:19.101Z,4.74
2019-03-27T05:37:19.066Z,4.75
2019-03-27T05:38:19.049Z,4.76
2019-03-27T05:39:19.053Z,4.83
2019-03-27T05:40:19.023Z,4.89
2019-03-27T05:41:19.051Z,4.89
2019-03-27T05:42:19.014Z,4.97
2019-03-27T05:43:18.989Z,4.94
2019-03-27T05:44:18.976Z,5.07
2019-03-27T05:45:18.966Z,5.08
2019-03-27T05:46:18.999Z,5.00
2019-03-27T05:47:18.992Z,4.98
2019-03-27T05:48:18.949Z,5.10
2019-03-27T05:49:18.923Z,5.04
2019-03-27T05:50:18.949Z,5.22
2019-03-27T05:51:18.958Z,5.13
2019-03-27T05:52:18.897Z,5.23
2019-03-27T05:53:18.882Z,5.19
2019-03-27T05:54:18.873Z,5.26
2019-03-27T05:55:18.868Z,5.29
2019-03-27T05:56:18.898Z,5.20
2019-03-27T05:57:18.846Z,5.25
2019-03-27T05:58:18.831Z,5.26
2019-03-27T05:59:18.830Z,5.25
2019-03-27T06:00:18.801Z,5.33
2019-03-27T06:01:18.823Z,5.37
2019-03-27T06:02:18.792Z,5.41
2019-03-27T06:03:18.793Z,5.40
2019-03-27T06:04:18.771Z,5.41
2019-03-27T06:05:18.759Z,5.43
2019-03-27T06:06:18.787Z,5.38
2019-03-27T06:07:18.731Z,5.52
2019-03-27T06:08:18.722Z,5.51
2019-03-27T06:09:18.711Z,5.55
2019-03-27T06:10:18.709Z,5.56
2019-03-27T06:11:18.711Z,5.65
2019-03-27T06:12:18.679Z,5.61
2019-03-27T06:13:18.672Z,5.70
2019-03-27T06:14:18.673Z,5.73
2019-03-27T06:15:18.660Z,5.76
2019-03-27T06:16:18.653Z,5.74
2019-03-27T06:17:18.628Z,5.83
2019-03-27T06:18:18.629Z,5.83
2019-03-27T06:19:18.615Z,5.87
2019-03-27T06:20:18.659Z,5.84
2019-03-27T06:21:18.614Z,5.91
2019-03-27T06:22:18.594Z,5.87
2019-03-27T06:23:18.566Z,5.90
2019-03-27T06:24:18.561Z,5.97
2019-03-27T06:25:18.546Z,6.07
2019-03-27T06:26:18.586Z,6.06
2019-03-27T06:27:18.521Z,5.98
2019-03-27T06:28:18.509Z,6.05
2019-03-27T06:29:18.490Z,6.05
2019-03-27T06:30:18.509Z,6.07
2019-03-27T06:31:18.511Z,6.13
2019-03-27T06:32:18.466Z,6.15
2019-03-27T06:33:18.450Z,6.13
2019-03-27T06:34:18.444Z,6.19
2019-03-27T06:35:20.196Z,6.19
2019-03-27T06:36:18.456Z,6.34
2019-03-27T06:37:18.449Z,6.35
2019-03-27T06:38:18.408Z,6.36
2019-03-27T06:39:18.401Z,6.41
2019-03-27T06:40:18.392Z,6.53
2019-03-27T06:41:18.401Z,6.47
2019-03-27T06:42:18.361Z,6.54
2019-03-27T06:43:18.410Z,6.54
2019-03-27T06:44:18.331Z,6.72
2019-03-27T06:45:18.319Z,6.67
2019-03-27T06:46:18.421Z,6.77
2019-03-27T06:47:18.365Z,6.85
2019-03-27T06:48:26.062Z,6.89
2019-03-27T06:49:19.277Z,6.96
2019-03-27T06:50:18.269Z,6.90
2019-03-27T06:51:18.251Z,7.01
2019-03-27T06:52:18.262Z,7.04
2019-03-27T06:53:18.249Z,7.03
2019-03-27T06:54:18.220Z,7.08
2019-03-27T06:55:18.247Z,7.10
2019-03-27T06:56:18.204Z,7.18
2019-03-27T06:57:18.216Z,7.04
2019-03-27T06:58:18.285Z,7.21
2019-03-27T06:59:18.168Z,7.23
2019-03-27T07:00:18.194Z,7.31
2019-03-27T07:01:18.160Z,7.33
2019-03-27T07:02:18.161Z,7.47
2019-03-27T07:03:18.120Z,7.47
2019-03-27T07:04:18.115Z,7.50
2019-03-27T07:05:18.112Z,7.70
2019-03-27T07:06:18.107Z,7.78
2019-03-27T07:07:18.112Z,7.90
2019-03-27T07:08:18.071Z,8.03
2019-03-27T07:09:18.063Z,8.08
2019-03-27T07:10:18.041Z,8.20
2019-03-27T07:11:18.053Z,8.56
2019-03-27T07:12:21.305Z,9.12
2019-03-27T07:13:18.035Z,9.05
2019-03-27T07:14:18.037Z,9.45
2019-03-27T07:15:17.994Z,9.45
2019-03-27T07:16:17.982Z,9.45
2019-03-27T07:17:18.001Z,9.40
2019-03-27T07:18:17.977Z,9.47
2019-03-27T07:19:17.968Z,9.27
2019-03-27T07:20:17.937Z,9.27
2019-03-27T07:21:17.931Z,9.21
2019-03-27T07:22:17.948Z,9.31
2019-03-27T07:23:17.913Z,9.42
2019-03-27T07:24:17.912Z,9.42
2019-03-27T07:25:17.904Z,9.47
2019-03-27T07:26:17.871Z,9.62
2019-03-27T07:27:17.894Z,9.85
2019-03-27T07:28:17.875Z,9.91
2019-03-27T07:29:19.166Z,9.92
2019-03-27T07:30:17.854Z,10.07
2019-03-27T07:31:17.899Z,10.06
2019-03-27T07:32:17.845Z,10.82
2019-03-27T07:33:17.830Z,11.70
2019-03-27T07:34:17.784Z,11.55
2019-03-27T07:35:17.777Z,11.18
2019-03-27T07:36:17.781Z,10.98
2019-03-27T07:37:17.787Z,11.00
2019-03-27T07:38:17.737Z,10.92
2019-03-27T07:39:17.743Z,11.07
2019-03-27T07:40:17.780Z,11.26
2019-03-27T07:41:17.727Z,11.88
2019-03-27T07:42:18.619Z,12.45
2019-03-27T07:43:17.723Z,13.62
2019-03-27T07:44:17.739Z,13.78
2019-03-27T07:45:17.681Z,13.55
2019-03-27T07:46:17.679Z,12.90
2019-03-27T07:47:17.657Z,12.86
2019-03-27T07:48:17.674Z,12.91
2019-03-27T07:49:17.646Z,12.86
2019-03-27T07:50:17.679Z,12.81
2019-03-27T07:51:17.620Z,12.93
2019-03-27T07:52:17.590Z,13.19
2019-03-27T07:53:17.606Z,13.40
2019-03-27T07:54:17.580Z,13.57
2019-03-27T07:55:19.490Z,13.76
2019-03-27T07:56:17.556Z,13.87
2019-03-27T07:57:17.531Z,14.36
2019-03-27T07:58:17.555Z,14.71
2019-03-27T07:59:17.525Z,14.97
2019-03-27T08:00:17.536Z,15.27
2019-03-27T08:01:17.497Z,15.48
2019-03-27T08:02:17.497Z,16.08
2019-03-27T08:03:17.531Z,16.09
2019-03-27T08:04:17.493Z,16.43
2019-03-27T08:05:17.454Z,16.32
2019-03-27T08:06:17.460Z,16.74
2019-03-27T08:07:26.857Z,16.89
2019-03-27T08:08:18.505Z,16.03
2019-03-27T08:09:17.403Z,14.67
2019-03-27T08:10:17.401Z,14.15
2019-03-27T08:11:17.419Z,13.71
2019-03-27T08:12:17.370Z,13.60
2019-03-27T08:13:17.405Z,13.39
2019-03-27T08:14:17.359Z,13.12
2019-03-27T08:15:17.335Z,12.75
2019-03-27T08:16:17.343Z,12.25
2019-03-27T08:17:17.334Z,11.77
2019-03-27T08:18:17.332Z,11.80
2019-03-27T08:19:17.303Z,11.52
2019-03-27T08:20:17.306Z,11.41
2019-03-27T08:21:17.281Z,11.78
2019-03-27T08:22:17.263Z,12.37
2019-03-27T08:23:17.296Z,12.98
2019-03-27T08:24:17.314Z,12.88
2019-03-27T08:25:17.257Z,13.13
2019-03-27T08:26:17.230Z,13.52
2019-03-27T08:27:17.263Z,14.56
2019-03-27T08:28:17.238Z,15.33
2019-03-27T08:29:17.180Z,15.90
2019-03-27T08:30:17.184Z,16.50
2019-03-27T08:31:17.170Z,15.78
2019-03-27T08:32:17.164Z,14.41
2019-03-27T08:33:17.182Z,13.26
2019-03-27T08:34:17.137Z,12.78
2019-03-27T08:35:17.140Z,13.43
2019-03-27T08:36:17.126Z,13.54
2019-03-27T08:37:17.106Z,13.58
2019-03-27T08:38:17.120Z,15.39
2019-03-27T08:39:17.091Z,16.83
2019-03-27T08:40:17.077Z,16.41
2019-03-27T08:41:17.059Z,16.22
2019-03-27T08:42:17.062Z,16.39
2019-03-27T08:43:21.529Z,15.59
2019-03-27T08:44:18.098Z,14.70
2019-03-27T08:45:17.014Z,13.93
2019-03-27T08:46:17.041Z,13.30
2019-03-27T08:47:17.053Z,12.72
2019-03-27T08:48:17.020Z,12.58
2019-03-27T08:49:22.147Z,12.39
2019-03-27T08:50:17.968Z,12.17
2019-03-27T08:51:16.984Z,12.12
2019-03-27T08:52:16.970Z,12.47
2019-03-27T08:53:16.959Z,12.62
2019-03-27T08:54:16.964Z,12.95
2019-03-27T08:55:16.910Z,12.78
2019-03-27T08:56:16.899Z,12.45
2019-03-27T08:57:16.910Z,12.45
2019-03-27T08:58:16.907Z,12.33
2019-03-27T08:59:16.882Z,11.99
2019-03-27T09:00:16.868Z,12.05
2019-03-27T09:01:16.857Z,12.00
2019-03-27T09:02:16.830Z,12.07
2019-03-27T09:03:16.836Z,12.33
2019-03-27T09:04:16.823Z,12.26
2019-03-27T09:05:16.809Z,12.28
2019-03-27T09:06:16.838Z,12.81
2019-03-27T09:07:16.803Z,13.58
2019-03-27T09:08:16.765Z,14.63
2019-03-27T09:09:16.769Z,15.73
2019-03-27T09:10:16.769Z,16.86
2019-03-27T09:11:16.778Z,18.24
2019-03-27T09:12:16.743Z,18.64
2019-03-27T09:13:16.718Z,18.51
2019-03-27T09:14:16.719Z,19.04
2019-03-27T09:15:16.688Z,18.30
2019-03-27T09:16:16.705Z,18.13
2019-03-27T09:17:16.676Z,18.76
2019-03-27T09:18:17.087Z,19.57
2019-03-27T09:19:16.662Z,20.46
2019-03-27T09:20:16.652Z,20.95
2019-03-27T09:21:16.654Z,20.93
2019-03-27T09:22:16.625Z,19.84
2019-03-27T09:23:16.596Z,18.67
2019-03-27T09:24:16.594Z,17.79
2019-03-27T09:25:16.636Z,16.87
2019-03-27T09:26:16.607Z,16.00
2019-03-27T09:27:16.586Z,15.12
2019-03-27T09:28:28.712Z,14.90
2019-03-27T09:29:28.765Z,15.57
2019-03-27T09:30:28.799Z,16.12
2019-03-27T09:31:28.896Z,15.60
2019-03-27T09:32:28.899Z,15.02
2019-03-27T09:33:28.952Z,15.29
2019-03-27T09:34:29.006Z,16.58
2019-03-27T09:35:53.459Z,16.05
2019-03-27T09:36:53.518Z,15.66
2019-03-27T09:43:25.291Z,15.78
2019-03-27T09:44:25.227Z,15.60
2019-03-27T09:45:25.188Z,14.99
2019-03-27T09:46:25.170Z,14.71
2019-03-27T09:47:25.127Z,14.26
2019-03-27T09:48:25.199Z,14.19
2019-03-27T09:49:25.037Z,14.03
2019-03-27T09:50:24.983Z,13.54
2019-03-27T09:51:24.969Z,13.39
2019-03-27T09:52:24.918Z,13.26
2019-03-27T09:53:24.896Z,13.08
2019-03-27T09:54:24.844Z,12.68
2019-03-27T09:55:24.813Z,12.30
2019-03-27T09:56:24.820Z,12.17
2019-03-27T09:57:24.788Z,12.23
2019-03-27T09:58:24.812Z,12.12
2019-03-27T09:59:24.729Z,12.05
2019-03-27T10:00:24.702Z,11.88
2019-03-27T10:01:24.774Z,11.85
2019-03-27T10:02:24.693Z,12.02
2019-03-27T10:03:24.686Z,11.96
2019-03-27T10:04:24.658Z,11.91
2019-03-27T10:05:24.687Z,12.08
2019-03-27T10:06:24.731Z,12.54
2019-03-27T10:07:24.662Z,14.20
2019-03-27T10:08:24.642Z,15.81
2019-03-27T10:09:24.619Z,16.83
2019-03-27T10:10:24.698Z,17.65
2019-03-27T10:11:24.762Z,16.91
2019-03-27T10:12:24.789Z,16.03
2019-03-27T10:13:24.844Z,15.60
2019-03-27T10:14:24.887Z,14.89
2019-03-27T10:15:24.941Z,14.43
2019-03-27T10:16:25.019Z,14.18
2019-03-27T10:17:25.046Z,13.85
2019-03-27T10:18:25.103Z,13.47
2019-03-27T10:19:25.152Z,13.27
